createdAt,value
2019-05-05T00:01:37.980Z,100284.99
2019-05-05T00:04:32.380Z,100283.41
2019-05-05T00:07:01.752Z,100287.69
2019-05-05T00:09:30.684Z,100288.25
2019-05-05T00:12:19.952Z,100287.38
2019-05-05T00:15:06.298Z,100286.52
2019-05-05T00:17:35.526Z,100284.02
2019-05-05T00:20:05.375Z,100287.53
2019-05-05T00:22:35.042Z,100284.02
2019-05-05T00:25:05.103Z,100292.11
2019-05-05T00:27:34.680Z,100285.64
2019-05-05T00:30:05.415Z,100280.95
2019-05-05T00:32:34.933Z,100286.80
2019-05-05T00:35:04.430Z,100287.34
2019-05-05T00:37:34.561Z,100294.47
2019-05-05T00:40:05.010Z,100301.23
2019-05-05T00:42:35.256Z,100299.53
2019-05-05T00:45:05.433Z,100304.03
2019-05-05T00:47:42.329Z,100307.61
2019-05-05T00:50:16.181Z,100307.16
2019-05-05T00:52:45.115Z,100312.98
2019-05-05T00:55:35.092Z,100314.38
2019-05-05T00:58:05.256Z,100311.49
2019-05-05T01:00:44.376Z,100314.06
2019-05-05T01:03:15.253Z,100322.91
2019-05-05T01:08:41.185Z,100313.27
2019-05-05T01:11:10.046Z,100313.34
2019-05-05T01:13:39.094Z,100317.77
2019-05-05T01:16:08.020Z,100312.47
2019-05-05T01:18:36.877Z,100322.33
2019-05-05T01:21:06.066Z,100317.56
2019-05-05T01:23:35.146Z,100323.23
2019-05-05T01:26:05.115Z,100319.83
2019-05-05T01:28:35.533Z,100314.68
2019-05-05T01:31:08.128Z,100319.17
2019-05-05T01:33:46.383Z,100311.23
2019-05-05T01:36:15.199Z,100314.89
2019-05-05T01:38:49.845Z,100322.83
2019-05-05T01:41:46.225Z,100321.95
2019-05-05T01:44:15.331Z,100325.54
2019-05-05T01:46:44.569Z,100327.46
2019-05-05T01:49:14.628Z,100323.98
2019-05-05T01:51:44.759Z,100333.69
2019-05-05T01:54:14.550Z,100331.98
2019-05-05T01:56:44.519Z,100333.38
2019-05-05T01:59:14.392Z,100337.41
2019-05-05T02:01:44.543Z,100340.95
2019-05-05T02:04:14.441Z,100343.60
2019-05-05T02:06:44.302Z,100340.20
2019-05-05T02:09:15.716Z,100340.27
2019-05-05T02:11:45.316Z,100339.39
2019-05-05T02:14:15.541Z,100340.79
2019-05-05T02:16:45.264Z,100339.84
2019-05-05T02:19:14.441Z,100338.21
2019-05-05T02:21:45.311Z,100332.13
2019-05-05T02:24:14.569Z,100340.92
2019-05-05T02:26:45.414Z,100339.22
2019-05-05T02:29:29.722Z,100338.80
2019-05-05T02:32:19.952Z,100337.55
2019-05-05T02:34:56.340Z,100342.91
2019-05-05T02:37:25.592Z,100343.84
2019-05-05T02:39:58.863Z,100343.98
2019-05-05T02:42:25.725Z,100346.70
2019-05-05T02:44:54.753Z,100345.97
2019-05-05T02:47:35.772Z,100349.02
2019-05-05T02:50:06.630Z,100346.91
2019-05-05T02:52:35.659Z,100353.96
2019-05-05T02:55:05.374Z,100353.13
2019-05-05T02:57:34.615Z,100349.61
2019-05-05T03:00:13.866Z,100351.00
2019-05-05T03:02:43.434Z,100354.97
2019-05-05T03:05:18.595Z,100360.70
2019-05-05T03:07:47.531Z,100357.61
2019-05-05T03:10:16.445Z,100359.45
2019-05-05T03:12:45.561Z,100358.13
2019-05-05T03:15:26.068Z,100357.30
2019-05-05T03:17:54.934Z,100356.94
2019-05-05T03:20:23.944Z,100353.60
2019-05-05T03:22:53.889Z,100361.59
2019-05-05T03:25:24.146Z,100368.20
2019-05-05T03:27:53.863Z,100366.95
2019-05-05T03:30:25.781Z,100365.63
2019-05-05T03:32:55.960Z,100371.81
2019-05-05T03:35:24.872Z,100373.62
2019-05-05T03:37:54.504Z,100376.27
2019-05-05T03:40:27.242Z,100373.62
2019-05-05T03:43:16.855Z,100375.01
2019-05-05T03:45:50.488Z,100376.45
2019-05-05T03:48:19.296Z,100379.23
2019-05-05T03:50:48.627Z,100383.64
2019-05-05T03:53:17.631Z,100384.09
2019-05-05T03:55:46.775Z,100385.42
2019-05-05T03:58:15.937Z,100385.10
2019-05-05T04:01:23.944Z,100382.45
2019-05-05T04:03:54.150Z,100385.10
2019-05-05T04:06:37.291Z,100395.41
2019-05-05T04:09:08.338Z,100402.53
2019-05-05T04:11:37.212Z,100404.72
2019-05-05T04:14:06.075Z,100404.23
2019-05-05T04:16:41.223Z,100396.80
2019-05-05T04:19:10.990Z,100403.85
2019-05-05T04:21:39.806Z,100405.17
2019-05-05T04:24:08.736Z,100410.00
2019-05-05T04:26:37.786Z,100414.73
2019-05-05T04:29:06.754Z,100411.77
2019-05-05T04:31:35.765Z,100418.89
2019-05-05T04:34:04.783Z,100428.06
2019-05-05T04:36:34.131Z,100424.17
2019-05-05T04:39:03.812Z,100422.92
2019-05-05T04:41:33.811Z,100425.62
2019-05-05T04:44:04.069Z,100441.89
2019-05-05T04:46:33.817Z,100436.25
2019-05-05T04:49:11.020Z,100437.50
2019-05-05T04:51:49.898Z,100439.25
2019-05-05T04:54:19.732Z,100433.96
2019-05-05T04:56:48.676Z,100437.98
2019-05-05T04:59:17.611Z,100438.38
2019-05-05T05:01:48.430Z,100444.11
2019-05-05T05:04:39.254Z,100441.02
2019-05-05T05:07:08.171Z,100444.59
2019-05-05T05:09:37.188Z,100443.72
2019-05-05T05:12:06.183Z,100448.48
2019-05-05T05:14:35.079Z,100445.42
2019-05-05T05:17:06.571Z,100457.73
2019-05-05T05:19:35.435Z,100458.50
2019-05-05T05:22:05.082Z,100458.44
2019-05-05T05:24:34.461Z,100461.89
2019-05-05T05:27:05.033Z,100468.42
2019-05-05T05:29:34.615Z,100481.57
2019-05-05T05:32:04.295Z,100479.31
2019-05-05T05:34:34.460Z,100480.19
2019-05-05T05:37:04.216Z,100482.83
2019-05-05T05:39:48.658Z,100490.81
2019-05-05T05:42:17.475Z,100492.59
2019-05-05T05:45:15.216Z,100498.35
2019-05-05T05:48:03.999Z,100509.37
2019-05-05T05:50:36.157Z,100509.37
2019-05-05T05:53:05.246Z,100513.39
2019-05-05T05:55:34.480Z,100509.88
2019-05-05T05:58:04.796Z,100513.33
2019-05-05T06:00:34.486Z,100509.81
2019-05-05T06:03:04.066Z,100517.23
2019-05-05T06:05:34.358Z,100516.84
2019-05-05T06:08:04.782Z,100527.80
2019-05-05T06:10:34.091Z,100523.38
2019-05-05T06:13:04.160Z,100519.81
2019-05-05T06:15:33.864Z,100523.70
2019-05-05T06:18:04.644Z,100518.42
2019-05-05T06:20:34.416Z,100523.78
2019-05-05T06:23:04.211Z,100525.03
2019-05-05T06:25:34.279Z,100530.25
2019-05-05T06:28:04.262Z,100533.02
2019-05-05T06:30:33.777Z,100536.41
2019-05-05T06:33:04.748Z,100542.20
2019-05-05T06:35:33.927Z,100542.94
2019-05-05T06:38:04.695Z,100545.16
2019-05-05T06:40:45.619Z,100543.91
2019-05-05T06:43:38.968Z,100538.23
2019-05-05T06:46:09.709Z,100541.69
2019-05-05T06:48:38.553Z,100545.52
2019-05-05T06:51:07.561Z,100548.16
2019-05-05T06:56:27.232Z,100556.80
2019-05-05T06:58:56.342Z,100552.00
2019-05-05T07:01:25.743Z,100551.81
2019-05-05T07:03:54.814Z,100562.08
2019-05-05T07:06:24.077Z,100559.37
2019-05-05T07:08:54.483Z,100558.13
2019-05-05T07:11:23.981Z,100559.92
2019-05-05T07:13:53.692Z,100563.83
2019-05-05T07:16:24.399Z,100567.24
2019-05-05T07:18:54.038Z,100569.70
2019-05-05T07:21:23.717Z,100564.28
2019-05-05T07:23:53.866Z,100570.19
2019-05-05T07:26:23.795Z,100572.70
2019-05-05T07:28:54.137Z,100570.68
2019-05-05T07:31:23.838Z,100573.45
2019-05-05T07:33:54.528Z,100578.16
2019-05-05T07:36:44.539Z,100572.87
2019-05-05T07:39:14.382Z,100571.80
2019-05-05T07:41:44.806Z,100567.84
2019-05-05T07:44:25.815Z,100568.77
2019-05-05T07:46:45.094Z,100567.13
2019-05-05T07:49:14.162Z,100566.20
2019-05-05T07:51:44.271Z,100562.55
2019-05-05T07:54:14.486Z,100567.91
2019-05-05T07:56:44.356Z,100563.80
2019-05-05T07:59:14.625Z,100558.77
2019-05-05T08:01:46.585Z,100560.77
2019-05-05T08:04:15.113Z,100552.53
2019-05-05T08:06:44.629Z,100558.36
2019-05-05T08:09:14.617Z,100555.03
2019-05-05T08:11:43.715Z,100555.45
2019-05-05T08:14:14.620Z,100554.58
2019-05-05T08:17:05.492Z,100549.60
2019-05-05T08:19:43.380Z,100543.27
2019-05-05T08:22:14.103Z,100549.81
2019-05-05T08:25:05.073Z,100536.83
2019-05-05T08:27:55.290Z,100540.14
2019-05-05T08:30:33.690Z,100530.19
2019-05-05T08:33:04.677Z,100535.75
2019-05-05T08:35:34.440Z,100538.78
2019-05-05T08:38:04.616Z,100529.14
2019-05-05T08:40:34.571Z,100537.15
2019-05-05T08:43:04.568Z,100538.85
2019-05-05T08:45:34.933Z,100536.38
2019-05-05T08:48:04.868Z,100536.38
2019-05-05T08:50:34.989Z,100548.42
2019-05-05T08:53:24.300Z,100554.03
2019-05-05T08:55:54.641Z,100552.33
2019-05-05T08:58:23.795Z,100555.50
2019-05-05T09:00:53.761Z,100561.38
2019-05-05T09:03:24.267Z,100562.70
2019-05-05T09:05:54.187Z,100555.11
2019-05-05T09:08:24.148Z,100553.66
2019-05-05T09:10:55.231Z,100552.57
2019-05-05T09:13:24.819Z,100549.78
2019-05-05T09:15:54.390Z,100549.78
2019-05-05T09:18:24.643Z,100554.20
2019-05-05T09:20:53.838Z,100550.86
2019-05-05T09:23:23.980Z,100550.86
2019-05-05T09:26:00.942Z,100556.02
2019-05-05T09:28:35.272Z,100548.00
2019-05-05T09:31:04.807Z,100545.22
2019-05-05T09:33:33.953Z,100547.38
2019-05-05T09:36:04.653Z,100546.99
2019-05-05T09:38:34.733Z,100550.16
2019-05-05T09:41:03.970Z,100553.38
2019-05-05T09:43:53.995Z,100555.59
2019-05-05T09:46:23.530Z,100551.31
2019-05-05T09:48:54.136Z,100548.67
2019-05-05T09:51:24.177Z,100548.74
2019-05-05T09:53:54.218Z,100546.02
2019-05-05T09:56:23.659Z,100550.86
2019-05-05T09:58:54.499Z,100553.82
2019-05-05T10:01:24.584Z,100546.41
2019-05-05T10:03:55.725Z,100560.44
2019-05-05T10:06:25.777Z,100567.13
2019-05-05T10:08:55.006Z,100572.50
2019-05-05T10:11:23.957Z,100575.21
2019-05-05T10:13:54.654Z,100579.70
2019-05-05T10:16:23.700Z,100578.00
2019-05-05T10:18:54.217Z,100588.58
2019-05-05T10:21:24.640Z,100588.66
2019-05-05T10:23:55.335Z,100589.98
2019-05-05T10:26:24.327Z,100593.01
2019-05-05T10:28:53.747Z,100587.72
2019-05-05T10:31:24.138Z,100585.00
2019-05-05T10:33:57.364Z,100593.01
2019-05-05T10:36:27.912Z,100594.33
2019-05-05T10:39:01.833Z,100598.79
2019-05-05T10:41:30.961Z,100591.23
2019-05-05T10:44:00.042Z,100593.36
2019-05-05T10:46:28.935Z,100592.66
2019-05-05T10:48:59.771Z,100589.56
2019-05-05T10:51:28.969Z,100589.87
2019-05-05T10:53:57.994Z,100590.60
2019-05-05T10:56:27.119Z,100589.59
2019-05-05T10:58:56.274Z,100592.66
2019-05-05T11:01:25.114Z,100589.06
2019-05-05T11:03:54.063Z,100577.08
2019-05-05T11:06:22.980Z,100579.66
2019-05-05T11:08:53.875Z,100576.00
2019-05-05T11:11:23.910Z,100572.76
2019-05-05T11:13:54.224Z,100568.71
2019-05-05T11:16:23.149Z,100569.52
2019-05-05T11:18:53.463Z,100561.81
2019-05-05T11:21:23.676Z,100563.92
2019-05-05T11:23:53.889Z,100564.31
2019-05-05T11:26:24.691Z,100558.94
2019-05-05T11:28:53.918Z,100563.78
2019-05-05T11:31:23.964Z,100565.48
2019-05-05T11:34:04.673Z,100567.76
2019-05-05T11:36:47.286Z,100567.76
2019-05-05T11:39:16.189Z,100559.39
2019-05-05T11:41:45.219Z,100562.84
2019-05-05T11:44:15.186Z,100557.55
2019-05-05T11:46:44.440Z,100555.28
2019-05-05T11:49:14.027Z,100560.64
2019-05-05T11:51:43.681Z,100563.71
2019-05-05T11:54:14.077Z,100559.73
2019-05-05T11:56:44.537Z,100557.92
2019-05-05T11:59:14.461Z,100562.46
2019-05-05T12:01:44.011Z,100564.70
2019-05-05T12:04:14.768Z,100567.54
2019-05-05T12:06:44.349Z,100555.62
2019-05-05T12:09:24.799Z,100563.88
2019-05-05T12:11:54.517Z,100570.80
2019-05-05T12:14:27.251Z,100564.26
2019-05-05T12:16:56.297Z,100562.48
2019-05-05T12:19:25.376Z,100566.91
2019-05-05T12:21:54.913Z,100562.94
2019-05-05T12:24:28.502Z,100572.20
2019-05-05T12:27:14.500Z,100565.27
2019-05-05T12:29:48.188Z,100570.95
2019-05-05T12:32:17.260Z,100568.16
2019-05-05T12:34:46.495Z,100564.11
2019-05-05T12:37:15.503Z,100568.42
2019-05-05T12:39:44.501Z,100570.52
2019-05-05T12:42:14.134Z,100568.36
2019-05-05T12:44:58.338Z,100569.27
2019-05-05T12:47:38.163Z,100568.42
2019-05-05T12:50:28.600Z,100568.36
2019-05-05T12:52:56.733Z,100568.13
2019-05-05T12:55:39.151Z,100565.87
2019-05-05T12:57:56.692Z,100564.54
2019-05-05T13:00:26.475Z,100563.59
2019-05-05T13:02:55.345Z,100568.06
2019-05-05T13:05:24.488Z,100568.52
2019-05-05T13:07:53.740Z,100569.39
2019-05-05T13:10:24.380Z,100564.61
2019-05-05T13:12:54.395Z,100576.46
2019-05-05T13:15:24.742Z,100574.76
2019-05-05T13:17:54.284Z,100572.56
2019-05-05T13:20:35.746Z,100573.02
2019-05-05T13:23:34.042Z,100575.28
2019-05-05T13:26:14.364Z,100581.91
2019-05-05T13:28:43.738Z,100577.06
2019-05-05T13:31:13.984Z,100586.83
2019-05-05T13:33:44.071Z,100582.36
2019-05-05T13:36:13.829Z,100579.09
2019-05-05T13:38:43.819Z,100579.09
2019-05-05T13:41:12.917Z,100586.41
2019-05-05T13:43:41.925Z,100586.83
2019-05-05T13:46:30.924Z,100587.28
2019-05-05T13:49:17.363Z,100586.34
2019-05-05T13:51:46.387Z,100586.41
2019-05-05T13:54:15.423Z,100590.72
2019-05-05T13:56:44.439Z,100592.13
2019-05-05T13:59:14.064Z,100592.96
2019-05-05T14:01:44.801Z,100593.45
2019-05-05T14:04:14.061Z,100588.61
2019-05-05T14:06:44.461Z,100582.85
2019-05-05T14:09:14.022Z,100583.69
2019-05-05T14:11:44.537Z,100581.38
2019-05-05T14:14:13.920Z,100580.44
2019-05-05T14:16:44.707Z,100574.12
2019-05-05T14:19:14.797Z,100579.16
2019-05-05T14:21:44.553Z,100569.20
2019-05-05T14:24:42.084Z,100572.50
2019-05-05T14:27:11.153Z,100570.02
2019-05-05T14:29:54.835Z,100566.03
2019-05-05T14:32:26.262Z,100565.51
2019-05-05T14:35:03.871Z,100567.31
2019-05-05T14:37:39.467Z,100563.83
2019-05-05T14:40:10.606Z,100566.02
2019-05-05T14:42:39.215Z,100560.39
2019-05-05T14:45:08.186Z,100564.52
2019-05-05T14:47:37.180Z,100564.73
2019-05-05T14:50:06.990Z,100565.75
2019-05-05T14:52:36.134Z,100566.00
2019-05-05T14:55:05.388Z,100555.91
2019-05-05T14:57:34.351Z,100558.31
2019-05-05T15:00:04.770Z,100570.89
2019-05-05T15:02:34.820Z,100575.00
2019-05-05T15:05:21.299Z,100578.16
2019-05-05T15:07:57.842Z,100587.66
2019-05-05T15:10:44.456Z,100597.83
2019-05-05T15:13:14.817Z,100590.02
2019-05-05T15:15:43.230Z,100595.55
2019-05-05T15:18:14.491Z,100590.39
2019-05-05T15:20:44.051Z,100593.74
2019-05-05T15:23:13.460Z,100590.71
2019-05-05T15:25:44.540Z,100588.59
2019-05-05T15:28:13.866Z,100593.29
2019-05-05T15:30:44.120Z,100587.44
2019-05-05T15:33:13.769Z,100582.05
2019-05-05T15:35:46.340Z,100578.98
2019-05-05T15:38:13.834Z,100573.76
2019-05-05T15:40:44.660Z,100577.66
2019-05-05T15:43:14.247Z,100567.38
2019-05-05T15:45:43.448Z,100564.55
2019-05-05T15:48:13.983Z,100561.49
2019-05-05T15:50:43.949Z,100561.87
2019-05-05T15:53:14.390Z,100559.96
2019-05-05T15:55:42.579Z,100565.23
2019-05-05T15:58:11.578Z,100568.42
2019-05-05T16:00:40.606Z,100559.17
2019-05-05T16:03:09.609Z,100559.15
2019-05-05T16:05:38.549Z,100559.64
2019-05-05T16:08:07.447Z,100559.02
2019-05-05T16:10:36.356Z,100567.19
2019-05-05T16:13:05.367Z,100568.67
2019-05-05T16:15:55.556Z,100561.94
2019-05-05T16:18:29.409Z,100563.01
2019-05-05T16:21:14.097Z,100569.77
2019-05-05T16:23:48.978Z,100574.45
2019-05-05T16:26:17.862Z,100577.39
2019-05-05T16:28:46.764Z,100571.99
2019-05-05T16:31:27.499Z,100576.94
2019-05-05T16:33:55.711Z,100569.59
2019-05-05T16:36:24.787Z,100580.05
2019-05-05T16:38:53.866Z,100579.97
2019-05-05T16:41:23.773Z,100583.41
2019-05-05T16:43:53.455Z,100586.44
2019-05-05T16:46:23.898Z,100584.16
2019-05-05T16:48:54.126Z,100584.91
2019-05-05T16:51:27.411Z,100581.01
2019-05-05T16:53:58.503Z,100582.34
2019-05-05T16:56:27.623Z,100580.60
2019-05-05T16:58:56.909Z,100578.64
2019-05-05T17:01:25.973Z,100584.56
2019-05-05T17:04:08.179Z,100582.45
2019-05-05T17:06:25.765Z,100575.37
2019-05-05T17:08:54.811Z,100575.28
2019-05-05T17:11:24.630Z,100582.34
2019-05-05T17:14:00.758Z,100584.73
2019-05-05T17:16:49.838Z,100585.89
2019-05-05T17:19:37.877Z,100584.39
2019-05-05T17:22:21.114Z,100581.59
2019-05-05T17:24:50.031Z,100587.80
2019-05-05T17:27:19.494Z,100584.94
2019-05-05T17:29:48.537Z,100594.33
2019-05-05T17:32:17.574Z,100587.86
2019-05-05T17:34:46.509Z,100594.50
2019-05-05T17:37:15.651Z,100595.55
2019-05-05T17:39:54.597Z,100595.02
2019-05-05T17:42:41.434Z,100599.06
2019-05-05T17:45:34.362Z,100597.38
2019-05-05T17:48:06.778Z,100595.14
2019-05-05T17:50:53.648Z,100600.88
2019-05-05T17:53:48.063Z,100599.42
2019-05-05T17:56:17.056Z,100601.55
2019-05-05T17:58:46.325Z,100600.09
2019-05-05T18:01:15.213Z,100599.47
2019-05-05T18:03:44.342Z,100600.17
2019-05-05T18:06:36.040Z,100595.60
2019-05-05T18:09:13.985Z,100593.11
2019-05-05T18:12:08.009Z,100598.67
2019-05-05T18:14:37.468Z,100597.96
2019-05-05T18:17:06.428Z,100606.95
2019-05-05T18:19:35.319Z,100602.27
2019-05-05T18:22:04.372Z,100607.73
2019-05-05T18:24:33.739Z,100608.81
2019-05-05T18:27:04.577Z,100613.33
2019-05-05T18:29:33.989Z,100613.91
2019-05-05T18:32:04.345Z,100609.67
2019-05-05T18:34:32.578Z,100615.93
2019-05-05T18:37:03.614Z,100609.98
2019-05-05T18:39:34.145Z,100615.86
2019-05-05T18:42:09.554Z,100617.20
2019-05-05T18:44:41.876Z,100622.16
2019-05-05T18:47:18.923Z,100616.64
2019-05-05T18:49:48.126Z,100623.89
2019-05-05T18:52:17.177Z,100622.26
2019-05-05T18:54:46.439Z,100634.28
2019-05-05T18:57:15.419Z,100630.45
2019-05-05T18:59:44.944Z,100629.28
2019-05-05T19:02:24.100Z,100631.63
2019-05-05T19:05:13.665Z,100633.41
2019-05-05T19:07:56.214Z,100638.88
2019-05-05T19:10:25.438Z,100641.22
2019-05-05T19:12:54.913Z,100648.84
2019-05-05T19:15:24.394Z,100645.02
2019-05-05T19:17:53.547Z,100642.52
2019-05-05T19:20:35.234Z,100641.75
2019-05-05T19:23:05.843Z,100648.92
2019-05-05T19:25:35.871Z,100645.97
2019-05-05T19:28:05.203Z,100650.39
2019-05-05T19:30:36.071Z,100655.39
2019-05-05T19:33:05.523Z,100656.80
2019-05-05T19:35:43.378Z,100660.44
2019-05-05T19:38:05.373Z,100666.23
2019-05-05T19:40:34.405Z,100666.76
2019-05-05T19:43:04.756Z,100665.95
2019-05-05T19:45:34.466Z,100671.75
2019-05-05T19:48:05.672Z,100666.59
2019-05-05T19:50:44.450Z,100673.83
2019-05-05T19:53:24.514Z,100673.45
2019-05-05T19:55:55.676Z,100679.66
2019-05-05T19:58:24.595Z,100679.28
2019-05-05T20:00:55.183Z,100680.75
2019-05-05T20:03:24.287Z,100681.70
2019-05-05T20:05:54.044Z,100684.34
2019-05-05T20:08:24.042Z,100682.67
2019-05-05T20:10:54.189Z,100683.31
2019-05-05T20:13:23.216Z,100684.30
2019-05-05T20:16:07.152Z,100685.16
2019-05-05T20:18:36.119Z,100683.84
2019-05-05T20:21:07.365Z,100686.17
2019-05-05T20:23:36.128Z,100690.23
2019-05-05T20:26:05.203Z,100688.48
2019-05-05T20:28:34.134Z,100693.93
2019-05-05T20:31:03.708Z,100694.95
2019-05-05T20:33:38.303Z,100694.08
2019-05-05T20:38:49.306Z,100693.31
2019-05-05T20:41:19.773Z,100692.51
2019-05-05T20:43:48.842Z,100693.03
2019-05-05T20:46:18.014Z,100694.88
2019-05-05T20:48:46.987Z,100696.62
2019-05-05T20:51:16.080Z,100694.47
2019-05-05T20:53:48.907Z,100696.20
2019-05-05T20:56:16.222Z,100698.93
2019-05-05T20:58:45.058Z,100703.42
2019-05-05T21:01:14.151Z,100705.70
2019-05-05T21:03:43.174Z,100697.81
2019-05-05T21:06:13.852Z,100703.05
2019-05-05T21:08:44.003Z,100706.67
2019-05-05T21:11:14.082Z,100704.97
2019-05-05T21:13:45.058Z,100708.41
2019-05-05T21:16:14.320Z,100706.81
2019-05-05T21:18:43.422Z,100703.85
2019-05-05T21:23:58.178Z,100712.67
2019-05-05T21:26:49.383Z,100711.41
2019-05-05T21:29:18.208Z,100710.92
2019-05-05T21:31:47.539Z,100715.84
2019-05-05T21:34:16.512Z,100710.69
2019-05-05T21:36:45.504Z,100717.83
2019-05-05T21:39:14.953Z,100717.38
2019-05-05T21:41:44.066Z,100715.80
2019-05-05T21:44:14.693Z,100719.29
2019-05-05T21:46:44.001Z,100710.58
2019-05-05T21:49:13.603Z,100721.63
2019-05-05T21:52:14.368Z,100722.50
2019-05-05T21:55:08.641Z,100719.43
2019-05-05T21:57:55.464Z,100722.14
2019-05-05T22:00:46.101Z,100723.89
2019-05-05T22:03:19.479Z,100725.35
2019-05-05T22:05:48.416Z,100722.70
2019-05-05T22:08:17.611Z,100719.32
2019-05-05T22:10:46.443Z,100721.03
2019-05-05T22:13:15.541Z,100719.63
2019-05-05T22:15:44.562Z,100721.09
2019-05-05T22:18:14.472Z,100720.19
2019-05-05T22:23:36.805Z,100717.75
2019-05-05T22:26:05.910Z,100710.26
2019-05-05T22:28:34.905Z,100712.03
2019-05-05T22:31:04.699Z,100718.27
2019-05-05T22:33:34.172Z,100720.78
2019-05-05T22:36:04.469Z,100718.20
2019-05-05T22:38:34.134Z,100712.03
2019-05-05T22:41:03.009Z,100716.48
2019-05-05T22:43:31.996Z,100710.78
2019-05-05T22:46:00.943Z,100712.66
2019-05-05T22:48:30.034Z,100716.62
2019-05-05T22:50:59.031Z,100710.98
2019-05-05T22:53:28.197Z,100720.31
2019-05-05T22:55:57.209Z,100713.77
2019-05-05T22:58:26.072Z,100712.05
2019-05-05T23:00:55.048Z,100707.08
2019-05-05T23:03:30.685Z,100710.59
2019-05-05T23:06:04.355Z,100714.95
2019-05-05T23:08:35.063Z,100713.24
2019-05-05T23:11:04.214Z,100719.06
2019-05-05T23:13:33.745Z,100711.19
2019-05-05T23:16:11.150Z,100714.31
2019-05-05T23:18:40.173Z,100711.87
2019-05-05T23:21:28.027Z,100712.78
2019-05-05T23:24:14.370Z,100713.72
2019-05-05T23:26:43.918Z,100708.03
2019-05-05T23:29:13.157Z,100706.71
2019-05-05T23:31:44.293Z,100708.48
2019-05-05T23:34:14.565Z,100707.23
2019-05-05T23:36:44.300Z,100708.23
2019-05-05T23:39:13.679Z,100704.27
2019-05-05T23:41:42.817Z,100704.78
2019-05-05T23:44:11.721Z,100705.52
2019-05-05T23:46:40.810Z,100696.84
2019-05-05T23:49:09.674Z,100696.77
2019-05-05T23:51:38.551Z,100696.45
2019-05-05T23:54:07.338Z,100695.66
2019-05-05T23:56:36.223Z,100695.72
2019-05-05T23:59:05.097Z,100696.72
